Terminal Aerodrome Forecast
Issued by NWS

Home | Current Version | Previous Version | Text Only | Print | Product List | Glossary On
Versions: 1 2 3 4 5 6 7 8 9 10 11 12 13 14 15 16 17 18 19 20 21 22 23 24 25 26 27 28 29 30 31 32
000
FTUS43 KDLH 210500
TAFHIB
TAF
KHIB 210520Z 2106/2206 07003KT P6SM OVC024
     FM210900 VRB02KT P6SM OVC015
     FM211500 14008KT P6SM OVC025
     FM211800 14010KT P6SM SCT025=

USA.gov is the U.S. government's official web portal to all federal, state and local government web resources and services.